Terminal Aerodrome Forecast
Issued by NWS

Home | Current Version | Previous Version | Text Only | Print | Product List | Glossary On
Versions: 1 2 3 4 5 6 7 8 9 10 11 12 13 14 15 16
000
FTUS44 KBMX 291140
TAFEET
TAF
KEET 291140Z 2912/3012 VRB03KT P6SM VCSH SCT040
     FM291800 34008KT P6SM VCTS BKN040CB
     FM300100 33003KT P6SM SCT040 SCT100 SCT200
      TEMPO 3011/3012 4SM BR=

USA.gov is the U.S. government's official web portal to all federal, state and local government web resources and services.